sensor_id;sensor_type;location;lat;lon;timestamp;pressure;altitude;pressure_sealevel;temperature;humidity
45731;BME280;31440;48.584;13.460;2022-12-07T00:02:10;96728.97;;;-0.06;100.00
45731;BME280;31440;48.584;13.460;2022-12-07T00:04:36;96731.53;;;0.24;100.00
45731;BME280;31440;48.584;13.460;2022-12-07T00:07:02;96727.28;;;0.32;100.00
45731;BME280;31440;48.584;13.460;2022-12-07T00:09:28;96725.56;;;0.04;100.00
45731;BME280;31440;48.584;13.460;2022-12-07T00:11:53;96723.84;;;-0.00;100.00
45731;BME280;31440;48.584;13.460;2022-12-07T00:14:19;96717.91;;;0.10;100.00
45731;BME280;31440;48.584;13.460;2022-12-07T00:16:45;96723.84;;;0.01;100.00
45731;BME280;31440;48.584;13.460;2022-12-07T00:19:12;96720.44;;;0.24;100.00
45731;BME280;31440;48.584;13.460;2022-12-07T00:21:38;96720.44;;;-0.11;100.00
45731;BME280;31440;48.584;13.460;2022-12-07T00:24:04;96715.34;;;0.05;100.00
45731;BME280;31440;48.584;13.460;2022-12-07T00:26:36;96710.22;;;0.01;100.00
45731;BME280;31440;48.584;13.460;2022-12-07T00:29:07;96708.50;;;-0.00;100.00
45731;BME280;31440;48.584;13.460;2022-12-07T00:31:36;96716.19;;;0.12;100.00
45731;BME280;31440;48.584;13.460;2022-12-07T00:34:10;96707.69;;;0.12;100.00
45731;BME280;31440;48.584;13.460;2022-12-07T00:36:37;96707.66;;;-0.01;100.00
45731;BME280;31440;48.584;13.460;2022-12-07T00:39:02;96703.41;;;0.26;100.00
45731;BME280;31440;48.584;13.460;2022-12-07T00:41:29;96705.97;;;0.29;100.00
45731;BME280;31440;48.584;13.460;2022-12-07T00:43:55;96694.00;;;0.44;100.00
45731;BME280;31440;48.584;13.460;2022-12-07T00:46:21;96704.22;;;0.37;100.00
45731;BME280;31440;48.584;13.460;2022-12-07T00:48:48;96709.38;;;0.08;100.00
45731;BME280;31440;48.584;13.460;2022-12-07T00:51:15;96706.84;;;0.14;100.00
45731;BME280;31440;48.584;13.460;2022-12-07T00:53:41;96691.47;;;0.16;100.00
45731;BME280;31440;48.584;13.460;2022-12-07T00:56:07;96699.16;;;0.31;100.00
45731;BME280;31440;48.584;13.460;2022-12-07T00:58:33;96699.16;;;0.26;100.00
45731;BME280;31440;48.584;13.460;2022-12-07T01:01:00;96706.81;;;0.08;100.00
45731;BME280;31440;48.584;13.460;2022-12-07T01:03:27;96708.50;;;0.18;100.00
45731;BME280;31440;48.584;13.460;2022-12-07T01:05:54;96681.25;;;0.06;100.00
45731;BME280;31440;48.584;13.460;2022-12-07T01:08:20;96702.56;;;0.27;100.00
45731;BME280;31440;48.584;13.460;2022-12-07T01:10:47;96705.97;;;-0.06;100.00
45731;BME280;31440;48.584;13.460;2022-12-07T01:13:12;96717.03;;;-0.01;100.00
45731;BME280;31440;48.584;13.460;2022-12-07T01:15:43;96713.63;;;0.06;100.00
45731;BME280;31440;48.584;13.460;2022-12-07T01:18:08;96713.63;;;-0.09;100.00
45731;BME280;31440;48.584;13.460;2022-12-07T01:20:34;96712.78;;;0.16;100.00
45731;BME280;31440;48.584;13.460;2022-12-07T01:23:00;96717.03;;;0.00;100.00
45731;BME280;31440;48.584;13.460;2022-12-07T01:25:25;96717.88;;;0.01;100.00
45731;BME280;31440;48.584;13.460;2022-12-07T01:27:51;96725.56;;;-0.08;100.00
45731;BME280;31440;48.584;13.460;2022-12-07T01:30:16;96713.63;;;0.03;100.00
45731;BME280;31440;48.584;13.460;2022-12-07T01:32:42;96717.03;;;-0.13;100.00
45731;BME280;31440;48.584;13.460;2022-12-07T01:35:08;96728.94;;;-0.18;100.00
45731;BME280;31440;48.584;13.460;2022-12-07T01:37:37;96701.72;;;0.14;100.00
45731;BME280;31440;48.584;13.460;2022-12-07T01:40:07;96718.75;;;-0.00;100.00
45731;BME280;31440;48.584;13.460;2022-12-07T01:42:33;96716.22;;;0.14;100.00
45731;BME280;31440;48.584;13.460;2022-12-07T01:47:46;96717.88;;;-0.14;100.00
45731;BME280;31440;48.584;13.460;2022-12-07T01:50:13;96713.63;;;0.03;100.00
45731;BME280;31440;48.584;13.460;2022-12-07T01:52:39;96697.44;;;0.05;100.00
45731;BME280;31440;48.584;13.460;2022-12-07T01:55:08;96712.81;;;0.15;100.00
45731;BME280;31440;48.584;13.460;2022-12-07T01:57:37;96711.06;;;0.15;100.00
45731;BME280;31440;48.584;13.460;2022-12-07T02:00:05;96702.56;;;0.24;100.00
45731;BME280;31440;48.584;13.460;2022-12-07T02:02:49;96715.34;;;0.02;100.00
45731;BME280;31440;48.584;13.460;2022-12-07T02:05:17;96719.59;;;0.19;100.00
45731;BME280;31440;48.584;13.460;2022-12-07T02:07:42;96705.09;;;0.24;100.00
45731;BME280;31440;48.584;13.460;2022-12-07T02:10:21;96716.19;;;0.29;100.00
45731;BME280;31440;48.584;13.460;2022-12-07T02:12:51;96712.78;;;0.25;100.00
45731;BME280;31440;48.584;13.460;2022-12-07T02:15:20;96711.94;;;0.22;100.00
45731;BME280;31440;48.584;13.460;2022-12-07T02:18:01;96713.63;;;0.20;100.00
45731;BME280;31440;48.584;13.460;2022-12-07T02:20:59;96711.94;;;0.14;100.00
45731;BME280;31440;48.584;13.460;2022-12-07T02:23:41;96700.00;;;0.21;100.00
45731;BME280;31440;48.584;13.460;2022-12-07T02:31:54;96702.56;;;0.08;100.00
45731;BME280;31440;48.584;13.460;2022-12-07T02:34:32;96705.97;;;-0.00;100.00
45731;BME280;31440;48.584;13.460;2022-12-07T02:37:03;96697.44;;;0.16;100.00
45731;BME280;31440;48.584;13.460;2022-12-07T02:39:37;96709.38;;;-0.07;100.00
45731;BME280;31440;48.584;13.460;2022-12-07T02:42:15;96700.00;;;-0.16;100.00
45731;BME280;31440;48.584;13.460;2022-12-07T02:44:43;96703.41;;;0.11;100.00
45731;BME280;31440;48.584;13.460;2022-12-07T02:47:12;96701.72;;;0.06;100.00
45731;BME280;31440;48.584;13.460;2022-12-07T02:49:40;96700.84;;;0.06;100.00
45731;BME280;31440;48.584;13.460;2022-12-07T02:52:06;96700.84;;;0.17;100.00
45731;BME280;31440;48.584;13.460;2022-12-07T02:54:31;96697.44;;;0.05;100.00
45731;BME280;31440;48.584;13.460;2022-12-07T02:57:05;96702.56;;;0.15;100.00
45731;BME280;31440;48.584;13.460;2022-12-07T03:05:26;96688.06;;;0.06;100.00
45731;BME280;31440;48.584;13.460;2022-12-07T03:07:59;96690.63;;;0.01;100.00
45731;BME280;31440;48.584;13.460;2022-12-07T03:15:54;96685.50;;;-0.28;100.00
45731;BME280;31440;48.584;13.460;2022-12-07T03:18:24;96682.97;;;-0.21;100.00
45731;BME280;31440;48.584;13.460;2022-12-07T03:20:53;96683.81;;;-0.21;100.00
45731;BME280;31440;48.584;13.460;2022-12-07T03:23:21;96677.00;;;0.02;100.00
45731;BME280;31440;48.584;13.460;2022-12-07T03:25:52;96688.91;;;-0.30;100.00
45731;BME280;31440;48.584;13.460;2022-12-07T03:28:22;96685.50;;;-0.31;100.00
45731;BME280;31440;48.584;13.460;2022-12-07T03:31:04;96673.59;;;-0.12;100.00
45731;BME280;31440;48.584;13.460;2022-12-07T03:36:23;96680.38;;;-0.44;100.00
45731;BME280;31440;48.584;13.460;2022-12-07T03:38:55;96671.03;;;-0.29;100.00
45731;BME280;31440;48.584;13.460;2022-12-07T03:41:25;96677.00;;;0.10;100.00
45731;BME280;31440;48.584;13.460;2022-12-07T03:43:53;96675.28;;;-0.24;100.00
45731;BME280;31440;48.584;13.460;2022-12-07T03:46:33;96666.75;;;-0.20;100.00
45731;BME280;31440;48.584;13.460;2022-12-07T03:49:25;96666.75;;;-0.42;100.00
45731;BME280;31440;48.584;13.460;2022-12-07T03:54:53;96671.03;;;-0.19;100.00
45731;BME280;31440;48.584;13.460;2022-12-07T03:57:22;96681.22;;;-0.36;100.00
45731;BME280;31440;48.584;13.460;2022-12-07T03:59:49;96676.16;;;-0.09;100.00
45731;BME280;31440;48.584;13.460;2022-12-07T04:02:16;96668.47;;;-0.24;100.00
45731;BME280;31440;48.584;13.460;2022-12-07T04:04:43;96671.88;;;-0.33;100.00
45731;BME280;31440;48.584;13.460;2022-12-07T04:07:08;96675.28;;;-0.34;100.00
45731;BME280;31440;48.584;13.460;2022-12-07T04:09:34;96671.88;;;-0.33;100.00
45731;BME280;31440;48.584;13.460;2022-12-07T04:12:01;96636.94;;;-0.55;100.00
45731;BME280;31440;48.584;13.460;2022-12-07T04:14:27;96671.03;;;-0.27;100.00
45731;BME280;31440;48.584;13.460;2022-12-07T04:16:57;96670.19;;;-0.24;100.00
45731;BME280;31440;48.584;13.460;2022-12-07T04:19:25;96672.75;;;-0.11;100.00
45731;BME280;31440;48.584;13.460;2022-12-07T04:21:51;96680.38;;;-0.17;100.00
45731;BME280;31440;48.584;13.460;2022-12-07T04:24:17;96675.28;;;-0.12;100.00
45731;BME280;31440;48.584;13.460;2022-12-07T04:26:43;96672.75;;;-0.23;100.00
45731;BME280;31440;48.584;13.460;2022-12-07T04:29:09;96675.28;;;-0.28;100.00
45731;BME280;31440;48.584;13.460;2022-12-07T04:31:35;96668.47;;;-0.39;100.00
45731;BME280;31440;48.584;13.460;2022-12-07T04:34:01;96669.28;;;-0.49;100.00
45731;BME280;31440;48.584;13.460;2022-12-07T04:36:27;96668.44;;;-0.38;100.00
45731;BME280;31440;48.584;13.460;2022-12-07T04:38:54;96669.31;;;-0.42;100.00
45731;BME280;31440;48.584;13.460;2022-12-07T04:41:21;96672.69;;;-0.59;100.00
45731;BME280;31440;48.584;13.460;2022-12-07T04:44:03;96665.06;;;-0.43;100.00
45731;BME280;31440;48.584;13.460;2022-12-07T04:46:31;96662.50;;;-0.38;100.00
45731;BME280;31440;48.584;13.460;2022-12-07T04:48:57;96663.34;;;-0.32;100.00
45731;BME280;31440;48.584;13.460;2022-12-07T04:51:25;96655.69;;;-0.36;100.00
45731;BME280;31440;48.584;13.460;2022-12-07T04:53:51;96665.03;;;-0.59;100.00
45731;BME280;31440;48.584;13.460;2022-12-07T04:56:18;96672.69;;;-0.64;100.00
45731;BME280;31440;48.584;13.460;2022-12-07T04:58:44;96670.16;;;-0.46;100.00
45731;BME280;31440;48.584;13.460;2022-12-07T05:01:11;96658.25;;;-0.22;100.00
45731;BME280;31440;48.584;13.460;2022-12-07T05:03:37;96667.59;;;-0.32;100.00
45731;BME280;31440;48.584;13.460;2022-12-07T05:06:03;96665.91;;;-0.41;100.00
45731;BME280;31440;48.584;13.460;2022-12-07T05:08:29;96661.63;;;-0.62;100.00
45731;BME280;31440;48.584;13.460;2022-12-07T05:10:56;96620.75;;;-0.62;100.00
45731;BME280;31440;48.584;13.460;2022-12-07T05:13:22;96675.28;;;-0.28;100.00
45731;BME280;31440;48.584;13.460;2022-12-07T05:15:48;96673.56;;;-0.48;100.00
45731;BME280;31440;48.584;13.460;2022-12-07T05:18:13;96673.56;;;-0.48;100.00
45731;BME280;31440;48.584;13.460;2022-12-07T05:20:40;96671.88;;;-0.45;100.00
45731;BME280;31440;48.584;13.460;2022-12-07T05:23:05;96671.03;;;-0.22;100.00
45731;BME280;31440;48.584;13.460;2022-12-07T05:25:31;96660.81;;;-0.13;100.00
45731;BME280;31440;48.584;13.460;2022-12-07T05:27:56;96661.66;;;-0.28;100.00
45731;BME280;31440;48.584;13.460;2022-12-07T05:30:25;96650.59;;;-0.16;100.00
45731;BME280;31440;48.584;13.460;2022-12-07T05:32:51;96666.78;;;-0.07;100.00
45731;BME280;31440;48.584;13.460;2022-12-07T05:35:17;96665.91;;;0.02;100.00
45731;BME280;31440;48.584;13.460;2022-12-07T05:37:43;96680.41;;;-0.14;100.00
45731;BME280;31440;48.584;13.460;2022-12-07T05:40:09;96678.69;;;-0.26;100.00
45731;BME280;31440;48.584;13.460;2022-12-07T05:42:35;96680.38;;;-0.17;100.00
45731;BME280;31440;48.584;13.460;2022-12-07T05:45:01;96688.00;;;-0.56;100.00
45731;BME280;31440;48.584;13.460;2022-12-07T05:47:27;96685.47;;;-0.50;100.00
45731;BME280;31440;48.584;13.460;2022-12-07T05:49:52;96675.25;;;-0.35;100.00
45731;BME280;31440;48.584;13.460;2022-12-07T05:52:18;96683.75;;;-0.59;100.00
45731;BME280;31440;48.584;13.460;2022-12-07T05:54:43;96682.06;;;-0.51;100.00
45731;BME280;31440;48.584;13.460;2022-12-07T05:57:09;96673.53;;;-0.51;100.00
45731;BME280;31440;48.584;13.460;2022-12-07T05:59:35;96652.25;;;-0.53;100.00
45731;BME280;31440;48.584;13.460;2022-12-07T06:02:03;96682.03;;;-0.63;100.00
45731;BME280;31440;48.584;13.460;2022-12-07T06:04:33;96667.59;;;-0.34;100.00
45731;BME280;31440;48.584;13.460;2022-12-07T06:06:59;96667.59;;;-0.18;100.00
45731;BME280;31440;48.584;13.460;2022-12-07T06:09:27;96665.91;;;0.06;100.00
45731;BME280;31440;48.584;13.460;2022-12-07T06:11:54;96666.78;;;-0.08;100.00
45731;BME280;31440;48.584;13.460;2022-12-07T06:14:39;96663.38;;;0.09;100.00
45731;BME280;31440;48.584;13.460;2022-12-07T06:17:04;96674.44;;;-0.10;100.00
45731;BME280;31440;48.584;13.460;2022-12-07T06:19:30;96670.19;;;0.12;100.00
45731;BME280;31440;48.584;13.460;2022-12-07T06:24:22;96677.84;;;-0.14;100.00
45731;BME280;31440;48.584;13.460;2022-12-07T06:26:47;96688.06;;;-0.31;100.00
45731;BME280;31440;48.584;13.460;2022-12-07T06:29:13;96688.03;;;-0.49;100.00
45731;BME280;31440;48.584;13.460;2022-12-07T06:31:39;96686.34;;;-0.44;100.00
45731;BME280;31440;48.584;13.460;2022-12-07T06:34:07;96694.88;;;-0.42;100.00
45731;BME280;31440;48.584;13.460;2022-12-07T06:36:34;96699.97;;;-0.37;100.00
45731;BME280;31440;48.584;13.460;2022-12-07T06:39:00;96696.53;;;-0.50;100.00
45731;BME280;31440;48.584;13.460;2022-12-07T06:41:26;96702.47;;;-0.55;100.00
45731;BME280;31440;48.584;13.460;2022-12-07T06:43:51;96695.69;;;-0.52;100.00
45731;BME280;31440;48.584;13.460;2022-12-07T06:46:17;96704.22;;;-0.33;100.00
45731;BME280;31440;48.584;13.460;2022-12-07T06:48:43;96703.41;;;-0.28;100.00
45731;BME280;31440;48.584;13.460;2022-12-07T06:51:09;96704.25;;;-0.30;100.00
45731;BME280;31440;48.584;13.460;2022-12-07T06:53:35;96702.50;;;-0.49;100.00
45731;BME280;31440;48.584;13.460;2022-12-07T06:56:00;96699.09;;;-0.51;100.00
45731;BME280;31440;48.584;13.460;2022-12-07T06:58:26;96678.69;;;-0.27;100.00
45731;BME280;31440;48.584;13.460;2022-12-07T07:00:52;96704.19;;;-0.57;100.00
45731;BME280;31440;48.584;13.460;2022-12-07T07:03:17;96699.16;;;-0.24;100.00
45731;BME280;31440;48.584;13.460;2022-12-07T07:05:43;96697.41;;;-0.45;100.00
45731;BME280;31440;48.584;13.460;2022-12-07T07:08:10;96703.38;;;-0.40;100.00
45731;BME280;31440;48.584;13.460;2022-12-07T07:10:36;96697.47;;;-0.04;100.00
45731;BME280;31440;48.584;13.460;2022-12-07T07:13:01;96706.81;;;-0.10;100.00
45731;BME280;31440;48.584;13.460;2022-12-07T07:15:27;96711.03;;;-0.47;100.00
45731;BME280;31440;48.584;13.460;2022-12-07T07:17:53;96711.09;;;-0.09;100.00
45731;BME280;31440;48.584;13.460;2022-12-07T07:20:18;96715.34;;;0.21;100.00
45731;BME280;31440;48.584;13.460;2022-12-07T07:22:44;96711.91;;;0.17;100.00
45731;BME280;31440;48.584;13.460;2022-12-07T07:25:09;96717.84;;;0.54;100.00
45731;BME280;31440;48.584;13.460;2022-12-07T07:27:35;96724.69;;;0.35;100.00
45731;BME280;31440;48.584;13.460;2022-12-07T07:30:01;96717.03;;;0.06;100.00
45731;BME280;31440;48.584;13.460;2022-12-07T07:32:26;96718.75;;;-0.11;100.00
45731;BME280;31440;48.584;13.460;2022-12-07T07:34:52;96726.41;;;-0.02;100.00
45731;BME280;31440;48.584;13.460;2022-12-07T07:37:18;96707.66;;;-0.01;100.00
45731;BME280;31440;48.584;13.460;2022-12-07T07:39:43;96732.34;;;-0.19;100.00
45731;BME280;31440;48.584;13.460;2022-12-07T07:42:09;96733.22;;;-0.02;100.00
45731;BME280;31440;48.584;13.460;2022-12-07T07:44:34;96728.06;;;-0.45;100.00
45731;BME280;31440;48.584;13.460;2022-12-07T07:47:00;96731.50;;;-0.15;100.00
45731;BME280;31440;48.584;13.460;2022-12-07T07:49:26;96735.78;;;-0.10;100.00
45731;BME280;31440;48.584;13.460;2022-12-07T07:54:18;96743.47;;;0.24;100.00
45731;BME280;31440;48.584;13.460;2022-12-07T07:56:43;96740.06;;;0.20;100.00
45731;BME280;31440;48.584;13.460;2022-12-07T07:59:09;96720.44;;;-0.19;100.00
45731;BME280;31440;48.584;13.460;2022-12-07T08:01:34;96741.72;;;-0.31;100.00
45731;BME280;31440;48.584;13.460;2022-12-07T08:04:00;96748.56;;;0.05;100.00
45731;BME280;31440;48.584;13.460;2022-12-07T08:06:25;96746.88;;;0.39;100.00
45731;BME280;31440;48.584;13.460;2022-12-07T08:08:51;96754.56;;;-0.03;100.00
45731;BME280;31440;48.584;13.460;2022-12-07T08:11:17;96738.31;;;-0.17;100.00
45731;BME280;31440;48.584;13.460;2022-12-07T08:13:45;96744.31;;;0.11;100.00
45731;BME280;31440;48.584;13.460;2022-12-07T08:16:12;96750.28;;;0.09;100.00
45731;BME280;31440;48.584;13.460;2022-12-07T08:18:39;96743.44;;;0.01;100.00
45731;BME280;31440;48.584;13.460;2022-12-07T08:21:06;96762.22;;;0.29;100.00
45731;BME280;31440;48.584;13.460;2022-12-07T08:23:33;96763.94;;;0.25;100.00
45731;BME280;31440;48.584;13.460;2022-12-07T08:26:03;96755.41;;;0.28;100.00
45731;BME280;31440;48.584;13.460;2022-12-07T08:28:29;96760.53;;;0.13;100.00
45731;BME280;31440;48.584;13.460;2022-12-07T08:31:16;96763.06;;;0.54;100.00
45731;BME280;31440;48.584;13.460;2022-12-07T08:33:42;96765.59;;;0.79;100.00
45731;BME280;31440;48.584;13.460;2022-12-07T08:36:09;96765.59;;;0.70;100.00
45731;BME280;31440;48.584;13.460;2022-12-07T08:38:36;96758.72;;;1.04;100.00
45731;BME280;31440;48.584;13.460;2022-12-07T08:41:02;96761.28;;;0.92;100.00
45731;BME280;31440;48.584;13.460;2022-12-07T08:43:28;96760.31;;;1.28;100.00
45731;BME280;31440;48.584;13.460;2022-12-07T08:48:27;96763.00;;;0.98;100.00
45731;BME280;31440;48.584;13.460;2022-12-07T08:50:53;96771.53;;;1.01;100.00
45731;BME280;31440;48.584;13.460;2022-12-07T08:53:20;96766.28;;;1.36;100.00
45731;BME280;31440;48.584;13.460;2022-12-07T08:55:46;96771.53;;;1.04;100.00
45731;BME280;31440;48.584;13.460;2022-12-07T08:58:12;96756.06;;;1.23;100.00
45731;BME280;31440;48.584;13.460;2022-12-07T09:00:37;96761.16;;;1.36;100.00
45731;BME280;31440;48.584;13.460;2022-12-07T09:03:03;96756.91;;;1.26;100.00
45731;BME280;31440;48.584;13.460;2022-12-07T09:05:28;96756.91;;;1.32;100.00
45731;BME280;31440;48.584;13.460;2022-12-07T09:07:57;96752.69;;;1.10;100.00
45731;BME280;31440;48.584;13.460;2022-12-07T09:10:25;96762.22;;;0.65;100.00
45731;BME280;31440;48.584;13.460;2022-12-07T09:12:51;96764.69;;;1.03;100.00
45731;BME280;31440;48.584;13.460;2022-12-07T09:15:17;96761.22;;;1.17;100.00
45731;BME280;31440;48.584;13.460;2022-12-07T09:17:42;96765.59;;;0.84;100.00
45731;BME280;31440;48.584;13.460;2022-12-07T09:20:08;96758.66;;;1.20;100.00
45731;BME280;31440;48.584;13.460;2022-12-07T09:22:34;96763.88;;;0.75;100.00
45731;BME280;31440;48.584;13.460;2022-12-07T09:25:00;96769.84;;;0.77;100.00
45731;BME280;31440;48.584;13.460;2022-12-07T09:27:27;96770.75;;;0.51;100.00
45731;BME280;31440;48.584;13.460;2022-12-07T09:29:53;96763.84;;;1.04;100.00
45731;BME280;31440;48.584;13.460;2022-12-07T09:32:19;96755.34;;;0.73;100.00
45731;BME280;31440;48.584;13.460;2022-12-07T09:34:44;96771.56;;;0.78;100.00
45731;BME280;31440;48.584;13.460;2022-12-07T09:37:10;96765.59;;;0.72;100.00
45731;BME280;31440;48.584;13.460;2022-12-07T09:39:38;96769.03;;;0.62;100.00
45731;BME280;31440;48.584;13.460;2022-12-07T09:42:05;96770.75;;;0.63;100.00
45731;BME280;31440;48.584;13.460;2022-12-07T09:44:31;96763.06;;;0.63;100.00
45731;BME280;31440;48.584;13.460;2022-12-07T09:46:57;96765.63;;;0.40;100.00
45731;BME280;31440;48.584;13.460;2022-12-07T09:49:25;96769.91;;;0.49;100.00
45731;BME280;31440;48.584;13.460;2022-12-07T09:54:20;96762.22;;;0.44;100.00
45731;BME280;31440;48.584;13.460;2022-12-07T09:56:45;96762.22;;;0.42;100.00
45731;BME280;31440;48.584;13.460;2022-12-07T09:59:16;96756.16;;;0.88;100.00
45731;BME280;31440;48.584;13.460;2022-12-07T10:01:44;96758.78;;;0.62;100.00
45731;BME280;31440;48.584;13.460;2022-12-07T10:04:18;96742.44;;;1.14;100.00
45731;BME280;31440;48.584;13.460;2022-12-07T10:06:45;96742.31;;;1.40;100.00
45731;BME280;31440;48.584;13.460;2022-12-07T10:09:12;96737.31;;;1.21;100.00
45731;BME280;31440;48.584;13.460;2022-12-07T10:12:01;96738.09;;;1.35;100.00
45731;BME280;31440;48.584;13.460;2022-12-07T10:14:29;96733.97;;;0.87;100.00
45731;BME280;31440;48.584;13.460;2022-12-07T10:19:24;96733.06;;;1.17;100.00
45731;BME280;31440;48.584;13.460;2022-12-07T10:22:05;96737.28;;;1.25;100.00
45731;BME280;31440;48.584;13.460;2022-12-07T10:24:34;96730.50;;;1.12;100.00
45731;BME280;31440;48.584;13.460;2022-12-07T10:26:59;96720.16;;;1.36;100.00
45731;BME280;31440;48.584;13.460;2022-12-07T10:29:31;96726.81;;;1.68;100.00
45731;BME280;31440;48.584;13.460;2022-12-07T10:34:41;96715.72;;;1.70;100.00
45731;BME280;31440;48.584;13.460;2022-12-07T10:37:14;96713.38;;;1.28;100.00
45731;BME280;31440;48.584;13.460;2022-12-07T10:39:51;96710.69;;;1.52;100.00
45731;BME280;31440;48.584;13.460;2022-12-07T10:42:37;96712.38;;;1.53;100.00
45731;BME280;31440;48.584;13.460;2022-12-07T10:45:21;96706.84;;;2.12;100.00
45731;BME280;31440;48.584;13.460;2022-12-07T10:47:51;96706.88;;;2.11;100.00
45731;BME280;31440;48.584;13.460;2022-12-07T10:56:45;96699.38;;;1.80;100.00
45731;BME280;31440;48.584;13.460;2022-12-07T11:04:57;96697.03;;;1.48;100.00
45731;BME280;31440;48.584;13.460;2022-12-07T11:10:22;96689.97;;;1.84;100.00
45731;BME280;31440;48.584;13.460;2022-12-07T11:13:13;96688.34;;;1.72;100.00
45731;BME280;31440;48.584;13.460;2022-12-07T11:18:22;96684.09;;;1.67;100.00
45731;BME280;31440;48.584;13.460;2022-12-07T11:21:00;96684.81;;;1.92;100.00
45731;BME280;31440;48.584;13.460;2022-12-07T11:24:01;96674.47;;;2.01;100.00
45731;BME280;31440;48.584;13.460;2022-12-07T11:29:39;96676.41;;;1.71;100.00
45731;BME280;31440;48.584;13.460;2022-12-07T11:35:11;96682.28;;;1.81;100.00
45731;BME280;31440;48.584;13.460;2022-12-07T11:37:39;96683.28;;;1.62;100.00
45731;BME280;31440;48.584;13.460;2022-12-07T11:40:24;96684.81;;;1.89;100.00
45731;BME280;31440;48.584;13.460;2022-12-07T11:43:01;96676.53;;;1.47;100.00
45731;BME280;31440;48.584;13.460;2022-12-07T11:45:32;96674.69;;;1.72;100.00
45731;BME280;31440;48.584;13.460;2022-12-07T11:53:14;96679.22;;;1.24;100.00
45731;BME280;31440;48.584;13.460;2022-12-07T11:56:17;96673.28;;;1.18;100.00
45731;BME280;31440;48.584;13.460;2022-12-07T11:58:56;96676.81;;;0.88;100.00
45731;BME280;31440;48.584;13.460;2022-12-07T12:01:53;96669.03;;;1.18;100.00
45731;BME280;31440;48.584;13.460;2022-12-07T12:04:34;96674.94;;;1.28;100.00
45731;BME280;31440;48.584;13.460;2022-12-07T12:07:02;96667.97;;;1.51;100.00
45731;BME280;31440;48.584;13.460;2022-12-07T12:09:35;96658.72;;;1.27;100.00
45731;BME280;31440;48.584;13.460;2022-12-07T12:12:58;96658.59;;;1.47;100.00
45731;BME280;31440;48.584;13.460;2022-12-07T12:15:46;96650.03;;;1.54;100.00
45731;BME280;31440;48.584;13.460;2022-12-07T12:21:15;96636.44;;;1.41;100.00
45731;BME280;31440;48.584;13.460;2022-12-07T12:23:45;96632.56;;;2.03;100.00
45731;BME280;31440;48.584;13.460;2022-12-07T12:26:20;96643.66;;;2.04;100.00
45731;BME280;31440;48.584;13.460;2022-12-07T12:33:48;96640.75;;;2.42;100.00
45731;BME280;31440;48.584;13.460;2022-12-07T12:51:56;96643.69;;;2.01;100.00
45731;BME280;31440;48.584;13.460;2022-12-07T12:54:32;96629.25;;;1.89;100.00
45731;BME280;31440;48.584;13.460;2022-12-07T12:57:27;96631.38;;;1.35;100.00
45731;BME280;31440;48.584;13.460;2022-12-07T13:07:56;96627.00;;;1.45;100.00
45731;BME280;31440;48.584;13.460;2022-12-07T13:21:01;96616.34;;;1.98;100.00
45731;BME280;31440;48.584;13.460;2022-12-07T13:23:33;96610.28;;;2.10;100.00
45731;BME280;31440;48.584;13.460;2022-12-07T13:26:03;96618.59;;;1.28;100.00
45731;BME280;31440;48.584;13.460;2022-12-07T13:28:37;96615.16;;;1.32;100.00
45731;BME280;31440;48.584;13.460;2022-12-07T13:31:35;96615.06;;;1.47;100.00
45731;BME280;31440;48.584;13.460;2022-12-07T13:34:03;96608.41;;;1.19;100.00
45731;BME280;31440;48.584;13.460;2022-12-07T13:36:37;96610.00;;;1.36;100.00
45731;BME280;31440;48.584;13.460;2022-12-07T13:39:20;96611.09;;;0.97;100.00
45731;BME280;31440;48.584;13.460;2022-12-07T13:41:58;96609.16;;;1.33;100.00
45731;BME280;31440;48.584;13.460;2022-12-07T13:44:27;96614.44;;;1.07;100.00
45731;BME280;31440;48.584;13.460;2022-12-07T13:47:16;96598.09;;;1.26;100.00
45731;BME280;31440;48.584;13.460;2022-12-07T13:49:51;96605.66;;;1.44;100.00
45731;BME280;31440;48.584;13.460;2022-12-07T13:52:23;96604.75;;;1.53;100.00
45731;BME280;31440;48.584;13.460;2022-12-07T13:55:01;96606.41;;;1.59;100.00
45731;BME280;31440;48.584;13.460;2022-12-07T13:57:29;96600.66;;;1.29;100.00
45731;BME280;31440;48.584;13.460;2022-12-07T14:00:01;96604.88;;;1.38;100.00
45731;BME280;31440;48.584;13.460;2022-12-07T14:02:29;96604.91;;;1.30;100.00
45731;BME280;31440;48.584;13.460;2022-12-07T14:05:23;96612.72;;;1.09;100.00
45731;BME280;31440;48.584;13.460;2022-12-07T14:07:59;96610.13;;;1.18;100.00
45731;BME280;31440;48.584;13.460;2022-12-07T14:10:39;96610.91;;;1.25;100.00
45731;BME280;31440;48.584;13.460;2022-12-07T14:15:56;96619.63;;;0.89;100.00
45731;BME280;31440;48.584;13.460;2022-12-07T14:18:35;96617.91;;;1.01;100.00
45731;BME280;31440;48.584;13.460;2022-12-07T14:23:38;96610.31;;;0.85;100.00
45731;BME280;31440;48.584;13.460;2022-12-07T14:26:12;96606.63;;;1.31;100.00
45731;BME280;31440;48.584;13.460;2022-12-07T14:28:42;96601.59;;;1.14;100.00
45731;BME280;31440;48.584;13.460;2022-12-07T14:31:21;96606.03;;;0.85;100.00
45731;BME280;31440;48.584;13.460;2022-12-07T14:33:49;96599.91;;;1.12;100.00
45731;BME280;31440;48.584;13.460;2022-12-07T14:36:14;96602.53;;;0.98;100.00
45731;BME280;31440;48.584;13.460;2022-12-07T14:38:40;96593.06;;;1.12;100.00
45731;BME280;31440;48.584;13.460;2022-12-07T14:41:12;96597.31;;;1.20;100.00
45731;BME280;31440;48.584;13.460;2022-12-07T14:43:57;96587.09;;;1.09;100.00
45731;BME280;31440;48.584;13.460;2022-12-07T14:46:23;96589.53;;;1.35;100.00
45731;BME280;31440;48.584;13.460;2022-12-07T14:48:48;96583.59;;;1.25;100.00
45731;BME280;31440;48.584;13.460;2022-12-07T14:51:14;96589.66;;;1.12;100.00
45731;BME280;31440;48.584;13.460;2022-12-07T14:53:48;96586.41;;;0.83;100.00
45731;BME280;31440;48.584;13.460;2022-12-07T14:56:14;96582.91;;;1.00;100.00